Eagle Tampa — S6NK6 — position and weather

sailwx.info

Track history (hours):
 
Tides and Currents Weather Stations Pressure Air Temp Water Temp Dewpoint Dewpoint Depression Visibility Wind Speed Wind Dir Waves Ship Positions

Eagle Tampa

Last reported at 2016-Jul-28 17:32 UTC. Time now 2016-Jul-28 18:19 UTC.
Position N 39°51' W 075°16'.

Length 247 m; draft 11.9 m.

Type: Tanker. MMSI: 563936000.

Date/timePositionNaut miles runAvg speedWind from/ knotsBaromVisibWave heightAir tempDewpointWater temp
2016-Jul-28 17:32N 39°51' W 075°16'0 0.0
2016-Jul-28 16:32N 39°51' W 075°16'0 0.0
2016-Jul-28 15:26N 39°51' W 075°16'0 0.0
2016-Jul-28 14:32N 39°51' W 075°16'0 0.0
2016-Jul-28 13:23N 39°51' W 075°16'0 0.0
2016-Jul-28 12:20N 39°51' W 075°16'0 0.0
2016-Jul-28 11:32N 39°51' W 075°16'0 0.0
2016-Jul-28 10:32N 39°51' W 075°16'0 0.0
2016-Jul-28 09:32N 39°51' W 075°16'0 0.0
2016-Jul-28 08:20N 39°51' W 075°16'0 0.0
2016-Jul-28 07:33N 39°51' W 075°16'0 0.0
2016-Jul-28 06:32N 39°51' W 075°16'0 0.0
2016-Jul-28 05:32N 39°51' W 075°16'0 0.0
2016-Jul-28 04:32N 39°51' W 075°16'0 0.0
2016-Jul-28 03:32N 39°51' W 075°16'0 0.0
2016-Jul-28 02:32N 39°51' W 075°16'0 0.1
2016-Jul-28 01:33N 39°51' W 075°16'4 4.5
2016-Jul-28 00:33N 39°50' W 075°22'7 7.2
2016-Jul-27 23:33N 39°45' W 075°29'9 9.5
2016-Jul-27 22:34N 39°37' W 075°35'1010.0
2016-Jul-27 21:33N 39°27' W 075°33'1111.1
2016-Jul-27 20:33N 39°18' W 075°23'10 9.6
2016-Jul-27 19:33N 39°11' W 075°16'1110.8
2016-Jul-27 18:34N 39°01' W 075°09'1111.4
2016-Jul-27 17:33N 38°51' W 075°04'8 7.6
2016-Jul-27 16:34N 38°45' W 074°57'16 8.0
2016-Jul-27 14:33N 38°32' W 074°45'9 8.6
2016-Jul-27 13:32N 38°26' W 074°37'1210.9
2016-Jul-27 12:23N 38°16' W 074°28'7 8.0
2016-Jul-27 11:28N 38°08' W 074°26'18 9.1
2016-Jul-27 09:31N 37°51' W 074°30'1010.3
2016-Jul-27 08:33N 37°41' W 074°30'1110.1
2016-Jul-27 07:28N 37°30' W 074°30'1210.4
2016-Jul-27 06:16N 37°18' W 074°30'15012.7
2016-Jul-26 18:23N 34°50' W 075°04'1416.6
2016-Jul-26 17:33N 34°38' W 075°12'3716.7
2016-Jul-26 15:20N 34°05' W 075°33'47311.3
2016-Jul-24 21:30N 27°03' W 079°42'3015.3
2016-Jul-24 19:33N 26°33' W 079°45'1515.1
2016-Jul-24 18:33N 26°18' W 079°47'1515.0
2016-Jul-24 17:33N 26°03' W 079°48'1515.0
2016-Jul-24 16:33N 25°48' W 079°49'  
2016-Jul-21 10:33N 28°32' W 094°39'  
Track history (hours):
 
Tides and Currents Weather Stations Pressure Air Temp Water Temp Dewpoint Dewpoint Depression Visibility Wind Speed Wind Dir Waves Ship Positions

Eagle Tampa

Last reported at 2016-Jul-28 17:32 UTC. Time now 2016-Jul-28 18:19 UTC.
Position N 39°51' W 075°16'.

Length 247 m; draft 11.9 m.

Type: Tanker. MMSI: 563936000.

Date/timePositionNaut miles runAvg speedWind from/ knotsBaromVisibWave heightAir tempDewpointWater temp
2016-Jul-28 17:32N 39°51' W 075°16'0 0.0
2016-Jul-28 16:32N 39°51' W 075°16'0 0.0
2016-Jul-28 15:26N 39°51' W 075°16'0 0.0
2016-Jul-28 14:32N 39°51' W 075°16'0 0.0
2016-Jul-28 13:23N 39°51' W 075°16'0 0.0
2016-Jul-28 12:20N 39°51' W 075°16'0 0.0
2016-Jul-28 11:32N 39°51' W 075°16'0 0.0
2016-Jul-28 10:32N 39°51' W 075°16'0 0.0
2016-Jul-28 09:32N 39°51' W 075°16'0 0.0
2016-Jul-28 08:20N 39°51' W 075°16'0 0.0
2016-Jul-28 07:33N 39°51' W 075°16'0 0.0
2016-Jul-28 06:32N 39°51' W 075°16'0 0.0
2016-Jul-28 05:32N 39°51' W 075°16'0 0.0
2016-Jul-28 04:32N 39°51' W 075°16'0 0.0
2016-Jul-28 03:32N 39°51' W 075°16'0 0.0
2016-Jul-28 02:32N 39°51' W 075°16'0 0.1
2016-Jul-28 01:33N 39°51' W 075°16'4 4.5
2016-Jul-28 00:33N 39°50' W 075°22'7 7.2
2016-Jul-27 23:33N 39°45' W 075°29'9 9.5
2016-Jul-27 22:34N 39°37' W 075°35'1010.0
2016-Jul-27 21:33N 39°27' W 075°33'1111.1
2016-Jul-27 20:33N 39°18' W 075°23'10 9.6
2016-Jul-27 19:33N 39°11' W 075°16'1110.8
2016-Jul-27 18:34N 39°01' W 075°09'1111.4
2016-Jul-27 17:33N 38°51' W 075°04'8 7.6
2016-Jul-27 16:34N 38°45' W 074°57'16 8.0
2016-Jul-27 14:33N 38°32' W 074°45'9 8.6
2016-Jul-27 13:32N 38°26' W 074°37'1210.9
2016-Jul-27 12:23N 38°16' W 074°28'7 8.0
2016-Jul-27 11:28N 38°08' W 074°26'18 9.1
2016-Jul-27 09:31N 37°51' W 074°30'1010.3
2016-Jul-27 08:33N 37°41' W 074°30'1110.1
2016-Jul-27 07:28N 37°30' W 074°30'1210.4
2016-Jul-27 06:16N 37°18' W 074°30'15012.7
2016-Jul-26 18:23N 34°50' W 075°04'1416.6
2016-Jul-26 17:33N 34°38' W 075°12'3716.7
2016-Jul-26 15:20N 34°05' W 075°33'47311.3
2016-Jul-24 21:30N 27°03' W 079°42'3015.3
2016-Jul-24 19:33N 26°33' W 079°45'1515.1
2016-Jul-24 18:33N 26°18' W 079°47'1515.0
2016-Jul-24 17:33N 26°03' W 079°48'1515.0
2016-Jul-24 16:33N 25°48' W 079°49'  
2016-Jul-21 10:33N 28°32' W 094°39'  

Dump ship's entire track history